Time;durP1;ratioP1;P1;durP2;ratioP2;P2;SDS_P1;SDS_P2;PMS_P1;PMS_P2;Temp;Humidity;BMP_temperature;BMP_pressure;BME280_temperature;BME280_humidity;BME280_pressure;Samples;Min_cycle;Max_cycle;Signal;HPM_P1;HPM_P2
2022/05/19 00:00:01;;;;;;;29.52;20.63;;;15.40;99.90;;;;;;4971200;28;20066;-85
2022/05/19 00:02:27;;;;;;;27.17;19.08;;;15.40;99.90;;;;;;4979589;28;20057;-85
2022/05/19 00:04:52;;;;;;;25.83;19.35;;;15.30;99.90;;;;;;4961014;28;20034;-85
2022/05/19 00:07:18;;;;;;;25.13;18.85;;;15.30;99.90;;;;;;4938518;28;20042;-86
2022/05/19 00:09:44;;;;;;;26.05;18.85;;;15.30;99.90;;;;;;4986888;28;20089;-85
2022/05/19 00:12:41;;;;;;;25.20;18.75;;;15.30;99.90;;;;;;4995845;28;20145;-86
2022/05/19 00:15:07;;;;;;;26.30;18.88;;;15.30;99.90;;;;;;4969104;28;20117;-85
2022/05/19 00:17:33;;;;;;;27.80;19.85;;;15.20;99.90;;;;;;4962278;28;20271;-86
2022/05/19 00:19:59;;;;;;;27.02;20.10;;;15.20;99.90;;;;;;4971210;28;20038;-85
2022/05/19 00:22:25;;;;;;;30.08;20.35;;;15.20;99.90;;;;;;4986583;28;20074;-85
2022/05/19 00:24:50;;;;;;;29.45;21.40;;;15.20;99.90;;;;;;4934265;28;20039;-85
2022/05/19 00:27:16;;;;;;;29.63;20.85;;;15.30;99.90;;;;;;4969533;28;20076;-86
2022/05/19 00:29:42;;;;;;;27.02;21.23;;;15.30;99.90;;;;;;4965882;28;20050;-86
2022/05/19 00:32:08;;;;;;;29.73;22.65;;;15.20;99.90;;;;;;4953839;28;20042;-85
2022/05/19 00:34:33;;;;;;;34.40;24.13;;;15.30;99.90;;;;;;4963810;28;20474;-85
2022/05/19 00:37:01;;;;;;;33.95;25.42;;;15.30;99.90;;;;;;4957615;28;20070;-85
2022/05/19 00:39:30;;;;;;;32.03;24.30;;;15.20;99.90;;;;;;4972088;28;20047;-85
2022/05/19 00:44:41;;;;;;;34.50;26.08;;;15.20;99.90;;;;;;4986035;28;20051;-86
2022/05/19 00:47:19;;;;;;;33.42;25.25;;;15.20;99.90;;;;;;4987982;28;20523;-86
2022/05/19 00:49:47;;;;;;;39.22;28.17;;;15.10;99.90;;;;;;4977353;28;20137;-85
2022/05/19 00:52:22;;;;;;;36.13;27.80;;;15.10;99.90;;;;;;4986474;28;20038;-85
2022/05/19 00:54:56;;;;;;;34.78;27.10;;;15.10;99.90;;;;;;4972537;28;20046;-85
2022/05/19 00:57:30;;;;;;;39.40;27.70;;;15.00;99.90;;;;;;4993866;28;20056;-85
2022/05/19 01:00:02;;;;;;;34.42;25.48;;;15.00;99.90;;;;;;4974870;28;20034;-86
2022/05/19 01:02:33;;;;;;;33.53;26.38;;;15.00;99.90;;;;;;4987307;28;20656;-86
2022/05/19 01:04:58;;;;;;;33.90;25.35;;;14.90;99.90;;;;;;4989720;28;20038;-86
2022/05/19 01:07:43;;;;;;;35.90;25.80;;;14.90;99.90;;;;;;4973060;28;20504;-86
2022/05/19 01:10:08;;;;;;;35.30;26.00;;;14.90;99.90;;;;;;4988957;28;20047;-86
2022/05/19 01:12:34;;;;;;;32.55;24.23;;;14.80;99.90;;;;;;4999620;28;20084;-86
2022/05/19 01:15:02;;;;;;;31.48;24.67;;;14.90;99.90;;;;;;4989629;28;20054;-87
2022/05/19 01:17:28;;;;;;;31.95;24.95;;;14.80;99.90;;;;;;4986492;28;20042;-86
2022/05/19 01:19:58;;;;;;;35.05;24.23;;;14.70;99.90;;;;;;4974199;28;20101;-86
2022/05/19 01:22:55;;;;;;;31.27;23.90;;;14.70;99.90;;;;;;4973573;28;20038;-86
2022/05/19 01:25:26;;;;;;;33.33;25.15;;;14.60;99.90;;;;;;4988875;28;20077;-86
2022/05/19 01:27:52;;;;;;;35.20;25.20;;;14.60;99.90;;;;;;4967790;28;20041;-86
2022/05/19 01:30:18;;;;;;;32.17;25.70;;;14.60;99.90;;;;;;4972842;28;20034;-86
2022/05/19 01:32:43;;;;;;;33.92;26.45;;;14.50;99.90;;;;;;4974882;28;20046;-86
2022/05/19 01:35:10;;;;;;;36.15;27.23;;;14.50;99.90;;;;;;4991690;28;20078;-86
2022/05/19 01:37:36;;;;;;;32.97;26.35;;;14.50;99.90;;;;;;4970575;28;20482;-86
2022/05/19 01:40:37;;;;;;;33.22;26.33;;;14.60;99.90;;;;;;4957773;28;20069;-86
2022/05/19 01:43:37;;;;;;;34.67;25.33;;;14.50;99.90;;;;;;4994572;28;20038;-88
2022/05/19 01:46:24;;;;;;;35.10;26.58;;;14.50;99.90;;;;;;4999391;28;20293;-86
2022/05/19 01:49:18;;;;;;;36.72;26.20;;;14.50;99.90;;;;;;4985087;28;20118;-86
2022/05/19 01:51:49;;;;;;;;;;;14.50;99.90;;;;;;5001023;28;20053;-87
2022/05/19 01:54:48;;;;;;;37.30;25.95;;;15.40;99.90;;;;;;5011271;28;19916;-87
2022/05/19 01:57:53;;;;;;;35.80;28.30;;;14.60;99.90;;;;;;5001713;28;20454;-87
2022/05/19 02:00:22;;;;;;;36.83;29.13;;;14.50;99.90;;;;;;4975896;28;20058;-85
2022/05/19 02:03:00;;;;;;;35.78;28.80;;;14.50;99.90;;;;;;4988916;28;20052;-87
2022/05/19 02:05:37;;;;;;;36.85;29.83;;;14.60;99.90;;;;;;5018939;28;20069;-87
2022/05/19 02:08:07;;;;;;;36.53;31.20;;;14.60;99.90;;;;;;5008865;28;20074;-86
2022/05/19 02:10:37;;;;;;;43.75;34.17;;;14.60;99.90;;;;;;4988531;28;20070;-86
2022/05/19 02:13:04;;;;;;;39.42;32.47;;;14.60;99.90;;;;;;5008100;28;20111;-86
2022/05/19 02:15:34;;;;;;;45.88;34.15;;;14.70;99.90;;;;;;5008458;28;20046;-87
2022/05/19 02:18:00;;;;;;;41.97;33.20;;;14.70;99.90;;;;;;5004195;28;20053;-86
2022/05/19 02:20:29;;;;;;;43.55;33.40;;;14.70;99.90;;;;;;5009132;28;20034;-86
2022/05/19 02:22:55;;;;;;;40.53;32.83;;;14.70;99.90;;;;;;5007755;28;20063;-86
2022/05/19 02:25:36;;;;;;;42.30;34.67;;;14.70;99.90;;;;;;5001303;28;20052;-87
2022/05/19 02:28:02;;;;;;;46.92;35.97;;;14.70;99.90;;;;;;4992911;28;20034;-86
2022/05/19 02:30:32;;;;;;;40.42;33.70;;;14.70;99.90;;;;;;4982585;28;20041;-86
2022/05/19 02:32:58;;;;;;;45.90;34.03;;;14.70;99.90;;;;;;4992125;28;20038;-86
2022/05/19 02:35:25;;;;;;;43.75;35.90;;;14.70;99.90;;;;;;4960095;28;20081;-87
2022/05/19 02:37:51;;;;;;;42.47;34.67;;;14.80;99.90;;;;;;4976119;28;20101;-86
2022/05/19 02:40:20;;;;;;;46.22;34.63;;;14.80;99.90;;;;;;5009922;28;20129;-86
2022/05/19 02:42:46;;;;;;;45.38;32.72;;;14.80;99.90;;;;;;4994772;28;20104;-87
2022/05/19 02:45:13;;;;;;;41.72;32.00;;;14.80;99.90;;;;;;4992223;28;20495;-87
2022/05/19 02:47:39;;;;;;;39.47;31.70;;;14.80;99.90;;;;;;4980066;28;20465;-86
2022/05/19 02:50:06;;;;;;;42.42;33.00;;;14.80;99.90;;;;;;4986783;28;20121;-86
2022/05/19 02:52:32;;;;;;;41.35;30.67;;;14.90;99.90;;;;;;4972901;28;20042;-86
2022/05/19 02:54:57;;;;;;;41.75;32.17;;;14.90;99.90;;;;;;5009689;28;20528;-86
2022/05/19 02:57:23;;;;;;;38.63;30.42;;;14.90;99.90;;;;;;4999041;28;20071;-86
2022/05/19 02:59:49;;;;;;;40.03;31.52;;;14.90;99.90;;;;;;4981950;28;20040;-86
2022/05/19 03:02:14;;;;;;;43.33;32.53;;;14.90;99.90;;;;;;4974485;28;20454;-86
2022/05/19 03:04:40;;;;;;;42.78;33.13;;;15.00;99.90;;;;;;4958832;28;20129;-87
2022/05/19 03:07:06;;;;;;;45.65;31.75;;;15.00;99.90;;;;;;4970829;28;20100;-86
2022/05/19 03:09:35;;;;;;;42.55;33.63;;;15.00;99.90;;;;;;4960408;28;20045;-86
2022/05/19 03:12:00;;;;;;;45.72;34.28;;;15.10;99.90;;;;;;4975021;28;20038;-86
2022/05/19 03:14:26;;;;;;;47.85;37.35;;;15.10;99.90;;;;;;4953758;28;20105;-86
2022/05/19 03:16:52;;;;;;;46.95;36.05;;;15.10;99.90;;;;;;4967576;28;20096;-87
2022/05/19 03:19:18;;;;;;;49.15;37.78;;;15.10;99.90;;;;;;4988225;28;20072;-86
2022/05/19 03:21:45;;;;;;;47.20;37.40;;;15.20;99.90;;;;;;4973333;28;20034;-86
2022/05/19 03:24:11;;;;;;;53.65;39.92;;;15.20;99.90;;;;;;4970085;28;20042;-86
2022/05/19 03:26:37;;;;;;;48.53;39.13;;;;;;;;;;4983605;28;20042;-86
2022/05/19 03:29:04;;;;;;;47.97;38.95;;;15.20;99.90;;;;;;4994099;28;20309;-86
2022/05/19 03:31:30;;;;;;;49.88;39.55;;;15.20;99.90;;;;;;5002330;28;20037;-86
2022/05/19 03:33:56;;;;;;;55.25;41.30;;;15.20;99.90;;;;;;4986658;28;20072;-86
2022/05/19 03:36:21;;;;;;;55.25;41.85;;;15.30;99.90;;;;;;4966981;28;20112;-87
2022/05/19 03:38:47;;;;;;;55.38;43.70;;;15.30;99.90;;;;;;4952808;28;20129;-86
2022/05/19 03:41:13;;;;;;;60.38;44.10;;;15.30;99.90;;;;;;4970118;28;20053;-86
2022/05/19 03:43:39;;;;;;;59.58;45.70;;;15.30;99.90;;;;;;4970200;28;20042;-87
2022/05/19 03:46:05;;;;;;;61.47;47.42;;;15.30;99.90;;;;;;4987371;28;20034;-86
2022/05/19 03:48:35;;;;;;;58.85;46.05;;;15.40;99.90;;;;;;4994789;28;20038;-86
2022/05/19 03:51:09;;;;;;;61.67;47.38;;;15.40;99.90;;;;;;4993374;28;20043;-86
2022/05/19 03:53:35;;;;;;;63.45;47.35;;;15.40;99.90;;;;;;4963371;28;20277;-86
2022/05/19 03:56:01;;;;;;;60.22;44.22;;;15.40;99.90;;;;;;4980578;28;20042;-86
2022/05/19 03:58:27;;;;;;;62.60;48.58;;;15.40;99.90;;;;;;4956348;28;20050;-86
2022/05/19 04:00:52;;;;;;;60.00;47.90;;;15.40;99.90;;;;;;4966313;28;20385;-87
2022/05/19 04:03:18;;;;;;;62.33;46.88;;;15.40;99.90;;;;;;4986649;28;20039;-87
2022/05/19 04:05:44;;;;;;;62.83;48.03;;;15.40;99.90;;;;;;4971713;28;20066;-87
2022/05/19 04:08:10;;;;;;;65.47;46.90;;;15.40;99.90;;;;;;4962763;28;20043;-87
2022/05/19 04:10:42;;;;;;;60.60;45.92;;;15.40;99.90;;;;;;4955369;28;20049;-87
2022/05/19 04:13:09;;;;;;;63.30;48.37;;;15.40;99.90;;;;;;4985457;28;20043;-87
2022/05/19 04:15:34;;;;;;;58.20;44.65;;;15.50;99.90;;;;;;4990202;28;20289;-87
2022/05/19 04:18:00;;;;;;;57.63;46.42;;;15.50;99.90;;;;;;4974558;28;20045;-87
2022/05/19 04:20:30;;;;;;;58.22;45.85;;;15.50;99.90;;;;;;4974706;28;20486;-86
2022/05/19 04:22:59;;;;;;;66.50;48.08;;;15.50;99.90;;;;;;4972390;28;20045;-86
2022/05/19 04:25:26;;;;;;;59.83;45.65;;;15.50;99.90;;;;;;4975885;28;20282;-86
2022/05/19 04:27:51;;;;;;;60.90;47.20;;;15.60;99.90;;;;;;4963401;28;20045;-86
2022/05/19 04:30:17;;;;;;;59.58;45.88;;;15.60;99.90;;;;;;4992938;28;20034;-87
2022/05/19 04:32:44;;;;;;;60.38;45.55;;;15.60;99.90;;;;;;4970471;28;20042;-86
2022/05/19 04:35:11;;;;;;;59.17;46.85;;;15.60;99.90;;;;;;4972943;28;20365;-86
2022/05/19 04:37:37;;;;;;;57.92;45.83;;;15.70;99.90;;;;;;4986422;28;20056;-86
2022/05/19 04:40:04;;;;;;;57.88;44.70;;;15.70;99.90;;;;;;4941590;28;20022;-86
2022/05/19 04:42:30;;;;;;;57.58;45.35;;;15.80;99.90;;;;;;4970656;28;20117;-87
2022/05/19 04:44:56;;;;;;;59.90;45.00;;;15.80;99.90;;;;;;4956524;28;20555;-87
2022/05/19 04:47:23;;;;;;;54.03;44.00;;;15.90;99.90;;;;;;4970937;28;20681;-87
2022/05/19 04:49:49;;;;;;;54.03;42.55;;;15.90;99.90;;;;;;4973494;28;20034;-87
2022/05/19 04:52:14;;;;;;;50.03;41.03;;;16.00;99.90;;;;;;4989096;28;20034;-87
2022/05/19 04:54:40;;;;;;;52.25;43.05;;;16.10;99.90;;;;;;4974691;28;20100;-88
2022/05/19 04:57:07;;;;;;;53.30;41.95;;;16.20;99.90;;;;;;4949141;28;20048;-88
2022/05/19 04:59:36;;;;;;;56.28;42.78;;;16.30;99.90;;;;;;4990835;28;20034;-87
2022/05/19 05:02:02;;;;;;;51.97;41.72;;;16.40;99.90;;;;;;4965849;28;20120;-87
2022/05/19 05:04:31;;;;;;;50.15;42.03;;;16.40;99.90;;;;;;4967475;28;20469;-86
2022/05/19 05:06:57;;;;;;;49.97;38.70;;;16.60;99.90;;;;;;4959600;28;20124;-88
2022/05/19 05:09:23;;;;;;;47.92;38.80;;;16.60;99.90;;;;;;4990833;28;20088;-87
2022/05/19 05:11:49;;;;;;;50.42;41.20;;;16.70;99.90;;;;;;4940198;28;20439;-87
2022/05/19 05:14:16;;;;;;;49.30;40.90;;;16.80;99.90;;;;;;4985146;28;20050;-87
2022/05/19 05:16:46;;;;;;;53.42;40.88;;;16.80;99.90;;;;;;4951449;28;20042;-87
2022/05/19 05:19:12;;;;;;;52.38;41.65;;;16.90;99.90;;;;;;4964558;28;20093;-87
2022/05/19 05:21:38;;;;;;;47.13;38.78;;;17.00;99.90;;;;;;4988751;28;20077;-87
2022/05/19 05:24:04;;;;;;;50.65;40.10;;;17.10;99.90;;;;;;4965543;28;20108;-87
2022/05/19 05:26:29;;;;;;;46.67;36.97;;;17.20;99.90;;;;;;4952769;28;20078;-86
2022/05/19 05:28:55;;;;;;;50.67;38.60;;;17.30;99.90;;;;;;4971378;28;20096;-86
2022/05/19 05:31:21;;;;;;;49.75;37.65;;;17.40;99.90;;;;;;4970948;28;20039;-86
2022/05/19 05:33:47;;;;;;;47.45;36.33;;;17.50;99.90;;;;;;4988862;28;20037;-87
2022/05/19 05:36:13;;;;;;;44.58;36.50;;;17.60;99.90;;;;;;4960887;28;20064;-86
2022/05/19 05:38:38;;;;;;;49.15;36.58;;;17.70;99.90;;;;;;4969896;28;20487;-86
2022/05/19 05:41:04;;;;;;;42.55;35.55;;;17.80;99.90;;;;;;4979518;28;20052;-87
2022/05/19 05:43:30;;;;;;;42.97;34.85;;;17.90;99.90;;;;;;4995167;28;20041;-86
2022/05/19 05:46:08;;;;;;;42.58;34.70;;;18.00;99.90;;;;;;4980363;28;20062;-86
2022/05/19 05:48:36;;;;;;;46.10;37.22;;;18.10;99.90;;;;;;4985217;28;20038;-85
2022/05/19 05:51:07;;;;;;;44.00;36.80;;;18.20;99.90;;;;;;4938689;28;20089;-86
2022/05/19 05:53:35;;;;;;;39.58;32.70;;;18.30;99.90;;;;;;4966233;28;20041;-86
2022/05/19 05:56:01;;;;;;;42.63;33.25;;;18.40;99.90;;;;;;4978856;28;20088;-86
2022/05/19 05:58:27;;;;;;;39.75;30.70;;;18.40;99.90;;;;;;4993185;28;20552;-86
2022/05/19 06:00:53;;;;;;;38.20;30.48;;;18.60;99.90;;;;;;5001083;28;20034;-85
2022/05/19 06:03:19;;;;;;;35.08;28.88;;;18.70;99.90;;;;;;4993355;28;20034;-86
2022/05/19 06:05:45;;;;;;;35.72;29.50;;;18.80;99.90;;;;;;4979015;28;20574;-86
2022/05/19 06:08:11;;;;;;;35.88;26.73;;;19.00;99.90;;;;;;4976643;28;20068;-86
2022/05/19 06:10:37;;;;;;;33.08;26.67;;;19.00;99.90;;;;;;5008752;28;20087;-87
2022/05/19 06:13:03;;;;;;;32.58;24.65;;;19.10;99.90;;;;;;4993588;28;20050;-87
2022/05/19 06:15:29;;;;;;;29.42;24.13;;;19.20;99.90;;;;;;5011774;28;20606;-86
2022/05/19 06:17:54;;;;;;;27.60;22.77;;;19.30;99.90;;;;;;4976959;28;20050;-86
2022/05/19 06:20:20;;;;;;;30.77;22.10;;;19.50;99.90;;;;;;4993504;28;20042;-87
2022/05/19 06:22:47;;;;;;;30.05;22.13;;;19.50;99.90;;;;;;4978302;28;20038;-86
2022/05/19 06:25:16;;;;;;;26.90;21.15;;;19.60;99.90;;;;;;5014647;28;20491;-86
2022/05/19 06:27:43;;;;;;;29.02;21.48;;;19.90;99.90;;;;;;4993298;28;20045;-87
2022/05/19 06:30:09;;;;;;;29.40;20.35;;;19.90;99.90;;;;;;4957952;28;20530;-85
2022/05/19 06:32:40;;;;;;;28.33;19.75;;;19.90;99.90;;;;;;4977277;28;20038;-87
2022/05/19 06:35:07;;;;;;;26.52;19.48;;;20.00;99.90;;;;;;5006628;28;20041;-86
2022/05/19 06:37:33;;;;;;;26.63;19.58;;;20.00;99.90;;;;;;4978985;28;20527;-86
2022/05/19 06:39:59;;;;;;;23.52;17.67;;;20.00;99.90;;;;;;4953865;28;20050;-87
2022/05/19 06:42:25;;;;;;;22.95;18.17;;;20.10;99.90;;;;;;4959305;28;20037;-86
2022/05/19 06:44:50;;;;;;;24.23;16.73;;;20.20;99.90;;;;;;4983245;28;20045;-87
2022/05/19 06:47:17;;;;;;;23.52;16.95;;;20.20;99.90;;;;;;4977282;28;20124;-86
2022/05/19 06:49:46;;;;;;;24.15;16.45;;;20.10;99.90;;;;;;4991085;28;20518;-86
2022/05/19 06:52:28;;;;;;;25.02;17.63;;;20.00;99.90;;;;;;4975341;28;20042;-86
2022/05/19 06:54:55;;;;;;;22.67;16.77;;;20.00;99.90;;;;;;4995489;28;20049;-86
2022/05/19 06:57:23;;;;;;;22.33;17.75;;;20.00;99.90;;;;;;4961530;28;20061;-86
2022/05/19 06:59:50;;;;;;;22.42;17.25;;;19.90;99.90;;;;;;4992645;28;20057;-89
2022/05/19 07:02:18;;;;;;;25.42;17.63;;;19.80;99.90;;;;;;4986874;28;20108;-86
2022/05/19 07:04:44;;;;;;;22.95;17.08;;;19.60;99.90;;;;;;4985529;28;20515;-86
2022/05/19 07:07:10;;;;;;;25.35;18.83;;;19.50;99.90;;;;;;4946113;28;20042;-87
2022/05/19 07:09:37;;;;;;;24.63;17.15;;;19.40;99.90;;;;;;4960738;28;20038;-87
2022/05/19 07:12:04;;;;;;;22.23;18.17;;;19.30;99.90;;;;;;4948001;28;20073;-86
2022/05/19 07:14:30;;;;;;;26.65;19.52;;;19.30;99.90;;;;;;4968242;28;20045;-88
2022/05/19 07:16:56;;;;;;;23.17;15.32;;;19.20;99.90;;;;;;4994109;28;20104;-85
2022/05/19 07:22:13;;;;;;;19.63;14.85;;;19.00;99.90;;;;;;4999857;28;20545;-87
2022/05/19 07:24:39;;;;;;;20.70;14.68;;;19.00;99.90;;;;;;4956592;28;20555;-88
2022/05/19 07:27:05;;;;;;;20.10;15.93;;;19.00;99.90;;;;;;4981636;28;20180;-86
2022/05/19 07:29:31;;;;;;;20.90;15.43;;;18.90;99.90;;;;;;5004023;28;20125;-87
2022/05/19 07:32:00;;;;;;;22.92;16.30;;;19.00;99.90;;;;;;4992535;28;20169;-87
2022/05/19 07:34:29;;;;;;;22.98;16.48;;;19.00;99.90;;;;;;4978046;28;20125;-87
2022/05/19 07:36:56;;;;;;;22.30;17.02;;;18.60;99.90;;;;;;4981942;28;20144;-87
2022/05/19 07:39:24;;;;;;;21.38;17.50;;;19.00;99.90;;;;;;4973746;28;20220;-87
2022/05/19 07:41:51;;;;;;;23.00;18.83;;;19.00;99.90;;;;;;4977017;28;20077;-86
2022/05/19 07:44:16;;;;;;;21.10;17.52;;;18.80;99.90;;;;;;4972842;28;20049;-86
2022/05/19 07:46:43;;;;;;;24.65;18.42;;;18.90;99.90;;;;;;4993515;28;20042;-87
2022/05/19 07:49:09;;;;;;;27.52;20.17;;;18.80;99.90;;;;;;4974413;28;20042;-87
2022/05/19 07:51:39;;;;;;;26.75;19.90;;;18.70;99.90;;;;;;4975339;28;20048;-88
2022/05/19 07:54:20;;;;;;;25.83;19.55;;;18.70;99.90;;;;;;4971945;28;20487;-87
2022/05/19 07:56:47;;;;;;;27.13;19.67;;;18.60;99.90;;;;;;4976293;28;20124;-88
2022/05/19 07:59:14;;;;;;;28.02;18.63;;;18.60;99.90;;;;;;5004182;28;20048;-88
2022/05/19 08:01:41;;;;;;;24.17;19.88;;;18.60;99.90;;;;;;4978032;28;20071;-88
2022/05/19 08:04:08;;;;;;;27.02;20.00;;;18.60;99.90;;;;;;4965736;28;20042;-88
2022/05/19 08:06:35;;;;;;;24.80;16.65;;;18.70;99.90;;;;;;4976930;28;20188;-88
2022/05/19 08:10:20;;;;;;;21.27;13.93;;;18.40;99.90;;;;;;4968737;28;20034;-88
2022/05/19 08:11:47;;;;;;;20.02;12.88;;;18.60;99.90;;;;;;4987742;28;20042;-87
2022/05/19 08:16:57;;;;;;;23.13;13.95;;;18.50;99.90;;;;;;4968563;28;20042;-89
2022/05/19 08:19:24;;;;;;;21.92;12.70;;;18.50;99.90;;;;;;4991394;28;20050;-88
2022/05/19 08:21:50;;;;;;;17.95;11.88;;;18.50;99.90;;;;;;4957851;28;20439;-88
2022/05/19 08:24:16;;;;;;;17.77;10.35;;;18.60;99.90;;;;;;4962590;28;20039;-88
2022/05/19 08:26:42;;;;;;;16.55;8.73;;;18.60;99.90;;;;;;4976559;28;20037;-88
2022/05/19 08:29:08;;;;;;;15.13;7.70;;;18.60;99.90;;;;;;5001712;28;20081;-88
2022/05/19 08:31:35;;;;;;;16.73;8.20;;;18.70;99.90;;;;;;4988140;28;20051;-88
2022/05/19 08:34:03;;;;;;;16.95;10.10;;;18.70;99.90;;;;;;4967325;28;20041;-87
2022/05/19 08:36:29;;;;;;;16.27;9.32;;;18.80;99.90;;;;;;4964771;28;20557;-86
2022/05/19 08:38:56;;;;;;;14.05;8.68;;;18.90;99.90;;;;;;4960147;28;20042;-88
2022/05/19 08:41:25;;;;;;;16.48;8.63;;;18.90;99.90;;;;;;4976675;28;20046;-88
2022/05/19 08:43:58;;;;;;;22.95;8.88;;;18.90;99.90;;;;;;5012740;28;20042;-88
2022/05/19 08:46:30;;;;;;;15.45;8.48;;;18.90;99.90;;;;;;4997077;28;20041;-87
2022/05/19 08:49:01;;;;;;;18.03;8.27;;;18.90;99.90;;;;;;4977845;28;20070;-86
2022/05/19 08:51:33;;;;;;;12.55;6.93;;;19.00;99.90;;;;;;4978291;28;20044;-88
2022/05/19 08:54:05;;;;;;;12.95;6.78;;;19.10;99.90;;;;;;4991835;28;20042;-88
2022/05/19 08:57:03;;;;;;;12.25;6.72;;;19.20;99.90;;;;;;4975404;28;20503;-88
2022/05/19 08:59:36;;;;;;;13.52;7.13;;;19.20;99.90;;;;;;4975023;28;20056;-88
2022/05/19 09:02:08;;;;;;;13.57;7.53;;;20.10;99.90;;;;;;4998970;28;20045;-88
2022/05/19 09:04:47;;;;;;;14.20;6.70;;;19.40;99.90;;;;;;4989995;28;20037;-87
2022/05/19 09:07:58;;;;;;;13.27;6.90;;;19.50;99.90;;;;;;4971920;28;20403;-87
2022/05/19 09:10:42;;;;;;;13.60;7.05;;;19.70;99.90;;;;;;4985237;28;20042;-87
2022/05/19 09:13:21;;;;;;;14.73;7.68;;;19.80;99.90;;;;;;4990167;28;20054;-87
2022/05/19 09:15:47;;;;;;;14.52;8.23;;;20.00;99.90;;;;;;4965333;28;20078;-87
2022/05/19 09:18:18;;;;;;;16.05;9.30;;;20.10;99.90;;;;;;4983672;28;20426;-87
2022/05/19 09:20:52;;;;;;;15.32;9.07;;;20.50;99.90;;;;;;4996258;28;20224;-87
2022/05/19 09:23:18;;;;;;;13.32;7.43;;;20.60;99.90;;;;;;4995856;28;20046;-87
2022/05/19 09:25:55;;;;;;;15.85;7.65;;;20.70;99.90;;;;;;4995867;28;20045;-87
2022/05/19 09:28:22;;;;;;;15.07;7.97;;;20.80;99.90;;;;;;4993529;28;20406;-88
2022/05/19 09:30:52;;;;;;;15.30;8.50;;;21.00;99.90;;;;;;4979648;28;20042;-87
2022/05/19 09:33:21;;;;;;;13.68;8.30;;;21.10;99.90;;;;;;4976337;28;20697;-87
2022/05/19 09:36:00;;;;;;;15.27;8.52;;;21.30;99.90;;;;;;4976695;28;20074;-87
2022/05/19 09:38:38;;;;;;;14.00;8.55;;;21.40;99.90;;;;;;4990872;28;20092;-88
2022/05/19 09:41:22;;;;;;;15.63;8.40;;;21.50;99.90;;;;;;4993684;28;20042;-88
2022/05/19 09:43:58;;;;;;;15.75;8.52;;;21.60;99.90;;;;;;4979267;28;20045;-88
2022/05/19 09:46:30;;;;;;;13.27;7.18;;;21.70;99.90;;;;;;4978945;28;20450;-88
2022/05/19 09:48:56;;;;;;;;;;;21.90;99.90;;;;;;4977380;28;20483;-87
2022/05/19 09:51:23;;;;;;;14.93;8.15;;;22.00;99.90;;;;;;4976789;28;19963;-87
2022/05/19 09:53:57;;;;;;;13.88;9.30;;;21.90;99.90;;;;;;5011632;28;20046;-87
2022/05/19 09:56:33;;;;;;;15.32;9.60;;;22.00;99.90;;;;;;5013079;28;20038;-87
2022/05/19 09:59:21;;;;;;;19.92;9.77;;;22.10;99.90;;;;;;4991006;28;20070;-87
2022/05/19 10:01:49;;;;;;;19.48;10.57;;;22.10;99.90;;;;;;4971638;28;20041;-87
2022/05/19 10:04:28;;;;;;;17.05;10.00;;;22.20;99.90;;;;;;4974909;28;20042;-88
2022/05/19 10:07:26;;;;;;;16.13;9.73;;;22.30;99.90;;;;;;4993810;28;20522;-87
2022/05/19 10:09:56;;;;;;;14.68;8.15;;;22.30;99.90;;;;;;4984464;28;20045;-87
2022/05/19 10:12:25;;;;;;;15.63;8.02;;;22.40;99.90;;;;;;4981890;28;20618;-88
2022/05/19 10:15:00;;;;;;;14.82;7.75;;;22.50;99.90;;;;;;5008736;28;20136;-87
2022/05/19 10:18:03;;;;;;;12.77;7.60;;;22.50;99.90;;;;;;4978629;28;20048;-88
2022/05/19 10:20:34;;;;;;;11.70;7.13;;;22.60;99.90;;;;;;4992335;28;20414;-87
2022/05/19 10:23:28;;;;;;;12.35;7.53;;;22.70;99.90;;;;;;4993467;28;20048;-88
2022/05/19 10:26:08;;;;;;;11.52;7.18;;;22.80;99.90;;;;;;4982734;28;20046;-88
2022/05/19 10:32:18;;;;;;;13.95;7.63;;;22.90;99.90;;;;;;4990878;28;20041;-87
2022/05/19 10:34:59;;;;;;;12.52;6.05;;;23.00;99.90;;;;;;4999814;28;20052;-88
2022/05/19 10:37:34;;;;;;;11.77;6.90;;;23.30;99.90;;;;;;4982419;28;20038;-88
2022/05/19 10:40:09;;;;;;;13.43;7.97;;;23.50;99.90;;;;;;5007978;28;20052;-88
2022/05/19 10:42:57;;;;;;;14.52;7.63;;;23.60;99.90;;;;;;4978809;28;20052;-89
2022/05/19 10:45:46;;;;;;;14.27;8.35;;;23.70;99.90;;;;;;4983581;28;20387;-88
2022/05/19 10:48:47;;;;;;;13.80;7.60;;;23.70;99.90;;;;;;4999482;28;20356;-87
2022/05/19 10:51:35;;;;;;;13.48;8.75;;;23.80;99.90;;;;;;4992992;28;20073;-87
2022/05/19 10:54:19;;;;;;;11.73;6.35;;;23.80;99.90;;;;;;4974949;28;20050;-87
2022/05/19 10:57:22;;;;;;;11.52;5.70;;;23.80;99.90;;;;;;4997000;28;20164;-87
2022/05/19 11:00:23;;;;;;;10.10;4.88;;;23.80;99.90;;;;;;5011365;28;20040;-87
2022/05/19 11:03:16;;;;;;;10.82;5.20;;;23.90;99.90;;;;;;4917470;29;20043;-87
2022/05/19 11:06:09;;;;;;;9.75;4.32;;;23.90;99.90;;;;;;4975654;28;20081;-87
2022/05/19 11:08:48;;;;;;;9.90;4.30;;;23.90;99.90;;;;;;4992873;28;20053;-87
2022/05/19 11:11:23;;;;;;;10.15;3.78;;;24.00;99.90;;;;;;4993288;28;20053;-87
2022/05/19 11:14:07;;;;;;;10.05;4.65;;;24.00;99.90;;;;;;4973444;28;20069;-87
2022/05/19 11:16:41;;;;;;;10.13;5.10;;;23.90;99.90;;;;;;4991881;28;20544;-87
2022/05/19 11:19:35;;;;;;;10.27;6.30;;;23.90;99.90;;;;;;4978284;28;20041;-87
2022/05/19 11:22:18;;;;;;;12.65;6.70;;;23.90;99.90;;;;;;4999858;28;20116;-87
2022/05/19 11:28:25;;;;;;;13.10;7.38;;;24.30;99.90;;;;;;4990027;28;20046;-88
2022/05/19 11:31:01;;;;;;;11.82;6.55;;;24.40;99.90;;;;;;4970407;28;20038;-88
2022/05/19 11:33:33;;;;;;;14.30;7.13;;;24.30;99.90;;;;;;4967894;28;20044;-87
2022/05/19 11:36:05;;;;;;;12.68;6.95;;;24.40;99.90;;;;;;4973504;28;20407;-87
2022/05/19 11:38:46;;;;;;;12.70;6.43;;;24.40;99.90;;;;;;4973513;28;20045;-86
2022/05/19 11:41:17;;;;;;;11.45;6.68;;;24.40;99.90;;;;;;4988970;28;20041;-86
2022/05/19 11:44:19;;;;;;;10.80;6.00;;;24.40;99.90;;;;;;4974728;28;20054;-87
2022/05/19 11:47:04;;;;;;;13.75;8.45;;;24.40;99.90;;;;;;4994915;28;20042;-88
2022/05/19 11:55:40;;;;;;;14.98;10.18;;;24.60;99.90;;;;;;4995347;28;20113;-87
2022/05/19 11:58:19;;;;;;;18.23;12.07;;;24.70;99.90;;;;;;4986329;28;20258;-86
2022/05/19 12:01:09;;;;;;;16.83;11.75;;;24.70;99.90;;;;;;4993301;28;20064;-87
2022/05/19 12:03:53;;;;;;;20.00;12.00;;;24.90;99.90;;;;;;4997749;28;20399;-86
2022/05/19 12:06:33;;;;;;;16.48;12.38;;;25.00;99.90;;;;;;4984623;28;20460;-86
2022/05/19 12:09:08;;;;;;;18.10;12.60;;;25.10;99.90;;;;;;4967768;28;20076;-87
2022/05/19 12:11:47;;;;;;;16.95;11.88;;;25.00;99.90;;;;;;4998660;28;20040;-87
2022/05/19 12:14:30;;;;;;;17.73;10.65;;;25.00;99.90;;;;;;4976350;28;20065;-86
2022/05/19 12:16:59;;;;;;;15.77;10.18;;;25.00;99.90;;;;;;4979958;28;20042;-88
2022/05/19 12:19:44;;;;;;;16.35;10.90;;;24.90;99.90;;;;;;4969345;28;20034;-88
2022/05/19 12:22:33;;;;;;;16.30;10.45;;;24.90;99.90;;;;;;4987105;28;20037;-86
2022/05/19 12:25:08;;;;;;;15.88;9.70;;;24.90;99.90;;;;;;4992290;28;20073;-86
2022/05/19 12:27:36;;;;;;;14.27;8.88;;;24.80;99.90;;;;;;4988609;28;20030;-86
2022/05/19 12:33:20;;;;;;;15.18;10.57;;;24.70;99.90;;;;;;4979297;28;20042;-86
2022/05/19 12:35:53;;;;;;;13.65;10.07;;;24.60;99.90;;;;;;4992297;28;20038;-87
2022/05/19 12:38:40;;;;;;;14.07;9.80;;;24.60;99.90;;;;;;4974376;28;20046;-86
2022/05/19 12:41:08;;;;;;;12.90;9.38;;;24.50;99.90;;;;;;5007036;28;20038;-87
2022/05/19 12:43:45;;;;;;;14.18;9.57;;;24.40;99.90;;;;;;4990679;28;20136;-87
2022/05/19 12:46:14;;;;;;;15.85;10.20;;;24.30;99.90;;;;;;4991971;28;20046;-87
2022/05/19 12:48:48;;;;;;;14.15;9.52;;;24.20;99.90;;;;;;4991907;28;20042;-87
2022/05/19 12:51:26;;;;;;;15.05;9.85;;;24.00;99.90;;;;;;4995934;28;20042;-86
2022/05/19 12:53:52;;;;;;;14.13;10.13;;;23.90;99.90;;;;;;4988489;28;20073;-87
2022/05/19 12:56:58;;;;;;;15.30;10.73;;;23.80;99.90;;;;;;4998288;28;20058;-87
2022/05/19 12:59:37;;;;;;;14.98;10.35;;;23.60;99.90;;;;;;5007390;28;20045;-85
2022/05/19 13:02:30;;;;;;;16.85;10.38;;;23.40;99.90;;;;;;5009246;28;20104;-87
2022/05/19 13:05:21;;;;;;;14.30;9.85;;;23.20;99.90;;;;;;4992736;28;20516;-86
2022/05/19 13:07:55;;;;;;;12.57;7.93;;;23.10;99.90;;;;;;4992714;28;20568;-85
2022/05/19 13:10:59;;;;;;;13.90;8.25;;;23.00;99.90;;;;;;4994835;28;20069;-86
2022/05/19 13:13:36;;;;;;;14.13;8.32;;;23.00;99.90;;;;;;4919887;28;20065;-86
2022/05/19 13:16:10;;;;;;;12.10;7.03;;;22.80;99.90;;;;;;4987654;28;20050;-86
2022/05/19 13:18:39;;;;;;;10.32;5.80;;;22.50;99.90;;;;;;5008591;28;20050;-86